sensor_id;sensor_type;location;lat;lon;timestamp;temperature;humidity
9215;DHT22;4642;51.364;6.788;2023-06-19T00:01:19;22.10;99.90
9215;DHT22;4642;51.364;6.788;2023-06-19T00:03:44;22.10;99.90
9215;DHT22;4642;51.364;6.788;2023-06-19T00:06:10;22.00;99.90
9215;DHT22;4642;51.364;6.788;2023-06-19T00:08:38;22.00;99.90
9215;DHT22;4642;51.364;6.788;2023-06-19T00:11:06;22.00;99.90
9215;DHT22;4642;51.364;6.788;2023-06-19T00:13:32;21.90;99.90
9215;DHT22;4642;51.364;6.788;2023-06-19T00:15:59;21.90;99.90
9215;DHT22;4642;51.364;6.788;2023-06-19T00:18:26;21.80;99.90
9215;DHT22;4642;51.364;6.788;2023-06-19T00:20:51;21.80;99.90
9215;DHT22;4642;51.364;6.788;2023-06-19T00:23:19;21.80;99.90
9215;DHT22;4642;51.364;6.788;2023-06-19T00:25:45;21.70;99.90
9215;DHT22;4642;51.364;6.788;2023-06-19T00:28:11;21.70;99.90
9215;DHT22;4642;51.364;6.788;2023-06-19T00:30:40;21.60;99.90
9215;DHT22;4642;51.364;6.788;2023-06-19T00:33:07;21.50;99.90
9215;DHT22;4642;51.364;6.788;2023-06-19T00:35:32;21.50;99.90
9215;DHT22;4642;51.364;6.788;2023-06-19T00:37:58;21.40;99.90
9215;DHT22;4642;51.364;6.788;2023-06-19T00:40:29;21.40;99.90
9215;DHT22;4642;51.364;6.788;2023-06-19T00:42:55;21.30;99.90
9215;DHT22;4642;51.364;6.788;2023-06-19T00:45:21;21.30;1.00
9215;DHT22;4642;51.364;6.788;2023-06-19T00:47:47;21.30;1.00
9215;DHT22;4642;51.364;6.788;2023-06-19T00:50:13;21.20;1.00
9215;DHT22;4642;51.364;6.788;2023-06-19T00:52:39;21.10;1.00
9215;DHT22;4642;51.364;6.788;2023-06-19T00:55:05;21.10;1.00
9215;DHT22;4642;51.364;6.788;2023-06-19T00:57:32;21.00;1.00
9215;DHT22;4642;51.364;6.788;2023-06-19T00:59:58;21.00;1.00
9215;DHT22;4642;51.364;6.788;2023-06-19T01:02:25;21.00;1.00
9215;DHT22;4642;51.364;6.788;2023-06-19T01:04:51;21.00;1.00
9215;DHT22;4642;51.364;6.788;2023-06-19T01:10:21;20.90;1.00
9215;DHT22;4642;51.364;6.788;2023-06-19T01:12:55;20.90;1.00
9215;DHT22;4642;51.364;6.788;2023-06-19T01:15:22;20.80;1.00
9215;DHT22;4642;51.364;6.788;2023-06-19T01:17:49;20.90;1.00
9215;DHT22;4642;51.364;6.788;2023-06-19T01:20:15;20.90;1.00
9215;DHT22;4642;51.364;6.788;2023-06-19T01:22:41;20.80;1.00
9215;DHT22;4642;51.364;6.788;2023-06-19T01:25:10;20.80;1.00
9215;DHT22;4642;51.364;6.788;2023-06-19T01:27:36;20.70;1.00
9215;DHT22;4642;51.364;6.788;2023-06-19T01:30:03;20.60;1.00
9215;DHT22;4642;51.364;6.788;2023-06-19T01:32:46;20.60;1.00
9215;DHT22;4642;51.364;6.788;2023-06-19T01:35:13;20.60;1.00
9215;DHT22;4642;51.364;6.788;2023-06-19T01:37:41;20.50;1.00
9215;DHT22;4642;51.364;6.788;2023-06-19T01:40:09;20.50;1.00
9215;DHT22;4642;51.364;6.788;2023-06-19T01:42:37;20.40;1.00
9215;DHT22;4642;51.364;6.788;2023-06-19T01:45:05;20.30;1.00
9215;DHT22;4642;51.364;6.788;2023-06-19T01:47:31;20.30;1.00
9215;DHT22;4642;51.364;6.788;2023-06-19T01:49:57;20.20;1.00
9215;DHT22;4642;51.364;6.788;2023-06-19T01:52:24;20.20;1.00
9215;DHT22;4642;51.364;6.788;2023-06-19T01:54:50;20.10;1.00
9215;DHT22;4642;51.364;6.788;2023-06-19T01:57:16;20.00;1.00
9215;DHT22;4642;51.364;6.788;2023-06-19T01:59:42;19.90;1.00
9215;DHT22;4642;51.364;6.788;2023-06-19T02:02:07;19.90;1.00
9215;DHT22;4642;51.364;6.788;2023-06-19T02:04:33;19.80;1.00
9215;DHT22;4642;51.364;6.788;2023-06-19T02:06:59;19.80;1.00
9215;DHT22;4642;51.364;6.788;2023-06-19T02:09:24;19.80;1.00
9215;DHT22;4642;51.364;6.788;2023-06-19T02:11:50;19.80;1.00
9215;DHT22;4642;51.364;6.788;2023-06-19T02:14:15;19.80;1.00
9215;DHT22;4642;51.364;6.788;2023-06-19T02:16:41;19.80;1.00
9215;DHT22;4642;51.364;6.788;2023-06-19T02:19:11;19.70;1.00
9215;DHT22;4642;51.364;6.788;2023-06-19T02:21:37;19.80;1.00
9215;DHT22;4642;51.364;6.788;2023-06-19T02:24:03;19.80;1.00
9215;DHT22;4642;51.364;6.788;2023-06-19T02:26:29;19.80;1.00
9215;DHT22;4642;51.364;6.788;2023-06-19T02:28:58;19.80;1.00
9215;DHT22;4642;51.364;6.788;2023-06-19T02:31:24;19.80;1.00
9215;DHT22;4642;51.364;6.788;2023-06-19T02:33:50;19.80;1.00
9215;DHT22;4642;51.364;6.788;2023-06-19T02:36:15;19.80;1.00
9215;DHT22;4642;51.364;6.788;2023-06-19T02:38:48;19.80;1.00
9215;DHT22;4642;51.364;6.788;2023-06-19T02:41:14;19.90;1.00
9215;DHT22;4642;51.364;6.788;2023-06-19T02:43:41;19.90;1.00
9215;DHT22;4642;51.364;6.788;2023-06-19T02:46:07;19.90;1.00
9215;DHT22;4642;51.364;6.788;2023-06-19T02:48:33;19.90;1.00
9215;DHT22;4642;51.364;6.788;2023-06-19T02:50:58;19.90;1.00
9215;DHT22;4642;51.364;6.788;2023-06-19T02:53:24;19.90;1.00
9215;DHT22;4642;51.364;6.788;2023-06-19T02:55:49;19.80;1.00
9215;DHT22;4642;51.364;6.788;2023-06-19T02:58:15;19.90;1.00
9215;DHT22;4642;51.364;6.788;2023-06-19T03:00:40;19.90;1.00
9215;DHT22;4642;51.364;6.788;2023-06-19T03:03:06;20.00;1.00
9215;DHT22;4642;51.364;6.788;2023-06-19T03:05:31;20.10;1.00
9215;DHT22;4642;51.364;6.788;2023-06-19T03:07:57;20.20;1.00
9215;DHT22;4642;51.364;6.788;2023-06-19T03:10:22;20.30;1.00
9215;DHT22;4642;51.364;6.788;2023-06-19T03:12:48;20.40;1.00
9215;DHT22;4642;51.364;6.788;2023-06-19T03:15:13;20.40;1.00
9215;DHT22;4642;51.364;6.788;2023-06-19T03:17:39;20.40;1.00
9215;DHT22;4642;51.364;6.788;2023-06-19T03:20:05;20.40;1.00
9215;DHT22;4642;51.364;6.788;2023-06-19T03:22:31;20.50;1.00
9215;DHT22;4642;51.364;6.788;2023-06-19T03:24:57;20.50;1.00
9215;DHT22;4642;51.364;6.788;2023-06-19T03:27:23;20.50;1.00
9215;DHT22;4642;51.364;6.788;2023-06-19T03:29:52;20.50;1.00
9215;DHT22;4642;51.364;6.788;2023-06-19T03:32:18;20.50;1.00
9215;DHT22;4642;51.364;6.788;2023-06-19T03:34:44;20.50;1.00
9215;DHT22;4642;51.364;6.788;2023-06-19T03:37:09;20.50;1.00
9215;DHT22;4642;51.364;6.788;2023-06-19T03:39:35;20.50;1.00
9215;DHT22;4642;51.364;6.788;2023-06-19T03:42:01;20.50;1.00
9215;DHT22;4642;51.364;6.788;2023-06-19T03:44:27;20.50;1.00
9215;DHT22;4642;51.364;6.788;2023-06-19T03:46:52;20.50;1.00
9215;DHT22;4642;51.364;6.788;2023-06-19T03:49:18;20.50;1.00
9215;DHT22;4642;51.364;6.788;2023-06-19T03:51:43;20.50;1.00
9215;DHT22;4642;51.364;6.788;2023-06-19T03:54:09;20.40;1.00
9215;DHT22;4642;51.364;6.788;2023-06-19T03:56:34;20.40;1.00
9215;DHT22;4642;51.364;6.788;2023-06-19T03:59:00;20.50;1.00
9215;DHT22;4642;51.364;6.788;2023-06-19T04:01:25;20.50;1.00
9215;DHT22;4642;51.364;6.788;2023-06-19T04:03:51;20.50;1.00
9215;DHT22;4642;51.364;6.788;2023-06-19T04:06:17;20.50;1.00
9215;DHT22;4642;51.364;6.788;2023-06-19T04:08:42;20.50;1.00
9215;DHT22;4642;51.364;6.788;2023-06-19T04:11:08;20.50;1.00
9215;DHT22;4642;51.364;6.788;2023-06-19T04:13:33;20.50;1.00
9215;DHT22;4642;51.364;6.788;2023-06-19T04:15:59;20.50;1.00
9215;DHT22;4642;51.364;6.788;2023-06-19T04:18:25;20.40;1.00
9215;DHT22;4642;51.364;6.788;2023-06-19T04:20:52;20.40;1.00
9215;DHT22;4642;51.364;6.788;2023-06-19T04:23:18;20.50;1.00
9215;DHT22;4642;51.364;6.788;2023-06-19T04:25:43;20.40;1.00
9215;DHT22;4642;51.364;6.788;2023-06-19T04:28:09;20.40;1.00
9215;DHT22;4642;51.364;6.788;2023-06-19T04:30:34;20.30;1.00
9215;DHT22;4642;51.364;6.788;2023-06-19T04:33:00;20.30;1.00
9215;DHT22;4642;51.364;6.788;2023-06-19T04:35:26;20.30;1.00
9215;DHT22;4642;51.364;6.788;2023-06-19T04:37:52;20.30;1.00
9215;DHT22;4642;51.364;6.788;2023-06-19T04:40:18;20.30;1.00
9215;DHT22;4642;51.364;6.788;2023-06-19T04:42:43;20.40;1.00
9215;DHT22;4642;51.364;6.788;2023-06-19T04:45:09;20.20;1.00
9215;DHT22;4642;51.364;6.788;2023-06-19T04:47:35;20.20;1.00
9215;DHT22;4642;51.364;6.788;2023-06-19T04:50:01;20.20;1.00
9215;DHT22;4642;51.364;6.788;2023-06-19T04:52:26;20.20;1.00
9215;DHT22;4642;51.364;6.788;2023-06-19T04:54:52;20.10;1.00
9215;DHT22;4642;51.364;6.788;2023-06-19T04:57:17;20.10;1.00
9215;DHT22;4642;51.364;6.788;2023-06-19T04:59:43;20.10;1.00
9215;DHT22;4642;51.364;6.788;2023-06-19T05:02:11;20.10;1.00
9215;DHT22;4642;51.364;6.788;2023-06-19T05:04:37;20.10;1.00
9215;DHT22;4642;51.364;6.788;2023-06-19T05:07:03;20.10;1.00
9215;DHT22;4642;51.364;6.788;2023-06-19T05:09:28;20.10;1.00
9215;DHT22;4642;51.364;6.788;2023-06-19T05:11:54;20.20;1.00
9215;DHT22;4642;51.364;6.788;2023-06-19T05:14:20;20.20;1.00
9215;DHT22;4642;51.364;6.788;2023-06-19T05:16:45;20.30;1.00
9215;DHT22;4642;51.364;6.788;2023-06-19T05:19:11;20.30;1.00
9215;DHT22;4642;51.364;6.788;2023-06-19T05:21:36;20.40;1.00
9215;DHT22;4642;51.364;6.788;2023-06-19T05:24:02;20.40;1.00
9215;DHT22;4642;51.364;6.788;2023-06-19T05:26:29;20.40;1.00
9215;DHT22;4642;51.364;6.788;2023-06-19T05:28:55;20.40;1.00
9215;DHT22;4642;51.364;6.788;2023-06-19T05:31:20;20.50;1.00
9215;DHT22;4642;51.364;6.788;2023-06-19T05:33:46;20.50;1.00
9215;DHT22;4642;51.364;6.788;2023-06-19T05:36:11;20.70;1.00
9215;DHT22;4642;51.364;6.788;2023-06-19T05:38:37;20.70;1.00
9215;DHT22;4642;51.364;6.788;2023-06-19T05:41:03;20.70;1.00
9215;DHT22;4642;51.364;6.788;2023-06-19T05:43:28;20.80;1.00
9215;DHT22;4642;51.364;6.788;2023-06-19T05:45:54;20.80;1.00
9215;DHT22;4642;51.364;6.788;2023-06-19T05:48:21;20.80;1.00
9215;DHT22;4642;51.364;6.788;2023-06-19T05:50:47;20.90;1.00
9215;DHT22;4642;51.364;6.788;2023-06-19T05:53:12;20.80;1.00
9215;DHT22;4642;51.364;6.788;2023-06-19T05:55:38;20.90;1.00
9215;DHT22;4642;51.364;6.788;2023-06-19T05:58:03;21.00;1.00
9215;DHT22;4642;51.364;6.788;2023-06-19T06:00:30;21.00;1.00
9215;DHT22;4642;51.364;6.788;2023-06-19T06:02:58;20.80;1.00
9215;DHT22;4642;51.364;6.788;2023-06-19T06:05:25;20.90;1.00
9215;DHT22;4642;51.364;6.788;2023-06-19T06:07:52;20.90;1.00
9215;DHT22;4642;51.364;6.788;2023-06-19T06:10:20;20.90;1.00
9215;DHT22;4642;51.364;6.788;2023-06-19T06:12:46;20.80;1.00
9215;DHT22;4642;51.364;6.788;2023-06-19T06:15:11;20.90;1.00
9215;DHT22;4642;51.364;6.788;2023-06-19T06:17:37;20.90;1.00
9215;DHT22;4642;51.364;6.788;2023-06-19T06:20:03;20.90;1.00
9215;DHT22;4642;51.364;6.788;2023-06-19T06:22:34;20.80;1.00
9215;DHT22;4642;51.364;6.788;2023-06-19T06:25:00;20.90;1.00
9215;DHT22;4642;51.364;6.788;2023-06-19T06:27:25;20.90;1.00
9215;DHT22;4642;51.364;6.788;2023-06-19T06:29:51;20.80;1.00
9215;DHT22;4642;51.364;6.788;2023-06-19T06:32:17;20.80;1.00
9215;DHT22;4642;51.364;6.788;2023-06-19T06:34:43;20.80;1.00
9215;DHT22;4642;51.364;6.788;2023-06-19T06:37:09;20.90;1.00
9215;DHT22;4642;51.364;6.788;2023-06-19T06:39:34;20.90;1.00
9215;DHT22;4642;51.364;6.788;2023-06-19T06:42:00;20.90;1.00
9215;DHT22;4642;51.364;6.788;2023-06-19T06:44:26;20.80;1.00
9215;DHT22;4642;51.364;6.788;2023-06-19T06:46:51;20.90;1.00
9215;DHT22;4642;51.364;6.788;2023-06-19T06:49:17;20.80;1.00
9215;DHT22;4642;51.364;6.788;2023-06-19T06:51:43;20.90;1.00
9215;DHT22;4642;51.364;6.788;2023-06-19T06:54:08;20.90;1.00
9215;DHT22;4642;51.364;6.788;2023-06-19T06:56:35;20.90;1.00
9215;DHT22;4642;51.364;6.788;2023-06-19T06:59:01;20.90;1.00
9215;DHT22;4642;51.364;6.788;2023-06-19T07:01:26;21.00;1.00
9215;DHT22;4642;51.364;6.788;2023-06-19T07:03:52;21.00;1.00
9215;DHT22;4642;51.364;6.788;2023-06-19T07:06:19;20.90;1.00
9215;DHT22;4642;51.364;6.788;2023-06-19T07:08:44;20.80;1.00
9215;DHT22;4642;51.364;6.788;2023-06-19T07:11:12;20.70;1.00
9215;DHT22;4642;51.364;6.788;2023-06-19T07:13:38;20.70;1.00
9215;DHT22;4642;51.364;6.788;2023-06-19T07:16:04;20.70;1.00
9215;DHT22;4642;51.364;6.788;2023-06-19T07:18:30;20.70;1.00
9215;DHT22;4642;51.364;6.788;2023-06-19T07:20:55;20.70;1.00
9215;DHT22;4642;51.364;6.788;2023-06-19T07:23:21;20.70;1.00
9215;DHT22;4642;51.364;6.788;2023-06-19T07:25:47;20.70;1.00
9215;DHT22;4642;51.364;6.788;2023-06-19T07:28:13;20.70;1.00
9215;DHT22;4642;51.364;6.788;2023-06-19T07:30:39;20.70;1.00
9215;DHT22;4642;51.364;6.788;2023-06-19T07:33:05;20.70;1.00
9215;DHT22;4642;51.364;6.788;2023-06-19T07:35:30;20.70;1.00
9215;DHT22;4642;51.364;6.788;2023-06-19T07:37:56;20.70;1.00
9215;DHT22;4642;51.364;6.788;2023-06-19T07:40:21;20.80;1.00
9215;DHT22;4642;51.364;6.788;2023-06-19T07:42:47;20.80;1.00
9215;DHT22;4642;51.364;6.788;2023-06-19T07:45:12;20.90;1.00
9215;DHT22;4642;51.364;6.788;2023-06-19T07:47:38;20.90;1.00
9215;DHT22;4642;51.364;6.788;2023-06-19T07:50:04;20.90;1.00
9215;DHT22;4642;51.364;6.788;2023-06-19T07:52:30;20.70;1.00
9215;DHT22;4642;51.364;6.788;2023-06-19T07:54:57;20.60;1.00
9215;DHT22;4642;51.364;6.788;2023-06-19T07:57:24;20.50;1.00
9215;DHT22;4642;51.364;6.788;2023-06-19T07:59:50;20.50;7.50
9215;DHT22;4642;51.364;6.788;2023-06-19T08:02:16;20.50;10.80
9215;DHT22;4642;51.364;6.788;2023-06-19T08:04:41;20.50;1.00
9215;DHT22;4642;51.364;6.788;2023-06-19T08:07:07;20.50;1.00
9215;DHT22;4642;51.364;6.788;2023-06-19T08:09:33;20.50;1.00
9215;DHT22;4642;51.364;6.788;2023-06-19T08:11:58;20.50;1.00
9215;DHT22;4642;51.364;6.788;2023-06-19T08:14:24;20.60;1.00
9215;DHT22;4642;51.364;6.788;2023-06-19T08:16:50;20.60;1.00
9215;DHT22;4642;51.364;6.788;2023-06-19T08:19:15;20.80;1.00
9215;DHT22;4642;51.364;6.788;2023-06-19T08:21:41;20.80;1.00
9215;DHT22;4642;51.364;6.788;2023-06-19T08:24:06;21.10;1.00
9215;DHT22;4642;51.364;6.788;2023-06-19T08:26:32;21.20;1.00
9215;DHT22;4642;51.364;6.788;2023-06-19T08:28:57;21.30;1.00
9215;DHT22;4642;51.364;6.788;2023-06-19T08:31:23;21.40;1.00
9215;DHT22;4642;51.364;6.788;2023-06-19T08:33:57;21.60;1.00
9215;DHT22;4642;51.364;6.788;2023-06-19T08:36:22;21.70;1.00
9215;DHT22;4642;51.364;6.788;2023-06-19T08:38:48;21.80;1.00
9215;DHT22;4642;51.364;6.788;2023-06-19T08:41:19;21.80;1.00
9215;DHT22;4642;51.364;6.788;2023-06-19T08:43:45;21.90;1.00
9215;DHT22;4642;51.364;6.788;2023-06-19T08:46:16;22.00;1.00
9215;DHT22;4642;51.364;6.788;2023-06-19T08:48:43;22.20;1.00
9215;DHT22;4642;51.364;6.788;2023-06-19T08:51:09;22.20;99.90
9215;DHT22;4642;51.364;6.788;2023-06-19T08:53:43;22.20;1.00
9215;DHT22;4642;51.364;6.788;2023-06-19T08:56:09;22.10;1.00
9215;DHT22;4642;51.364;6.788;2023-06-19T08:58:34;22.10;1.00
9215;DHT22;4642;51.364;6.788;2023-06-19T09:01:00;22.30;1.00
9215;DHT22;4642;51.364;6.788;2023-06-19T09:03:26;22.30;99.90
9215;DHT22;4642;51.364;6.788;2023-06-19T09:05:51;22.40;99.90
9215;DHT22;4642;51.364;6.788;2023-06-19T09:08:18;22.40;99.90
9215;DHT22;4642;51.364;6.788;2023-06-19T09:11:03;22.40;99.90
9215;DHT22;4642;51.364;6.788;2023-06-19T09:13:30;22.40;99.90
9215;DHT22;4642;51.364;6.788;2023-06-19T09:16:02;22.40;99.90
9215;DHT22;4642;51.364;6.788;2023-06-19T09:18:47;22.40;99.90
9215;DHT22;4642;51.364;6.788;2023-06-19T09:21:17;22.60;99.90
9215;DHT22;4642;51.364;6.788;2023-06-19T09:23:44;22.80;99.90
9215;DHT22;4642;51.364;6.788;2023-06-19T09:26:10;22.90;99.90
9215;DHT22;4642;51.364;6.788;2023-06-19T09:28:40;23.00;99.90
9215;DHT22;4642;51.364;6.788;2023-06-19T09:31:08;23.20;99.90
9215;DHT22;4642;51.364;6.788;2023-06-19T09:33:34;23.30;99.90
9215;DHT22;4642;51.364;6.788;2023-06-19T09:36:02;23.40;99.90
9215;DHT22;4642;51.364;6.788;2023-06-19T09:38:30;23.50;99.90
9215;DHT22;4642;51.364;6.788;2023-06-19T09:40:57;23.20;99.90
9215;DHT22;4642;51.364;6.788;2023-06-19T09:43:25;23.40;99.90
9215;DHT22;4642;51.364;6.788;2023-06-19T09:45:54;23.50;99.90
9215;DHT22;4642;51.364;6.788;2023-06-19T09:48:28;23.50;99.90
9215;DHT22;4642;51.364;6.788;2023-06-19T09:51:23;23.50;99.90
9215;DHT22;4642;51.364;6.788;2023-06-19T09:53:53;23.50;99.90
9215;DHT22;4642;51.364;6.788;2023-06-19T09:56:19;23.50;99.90
9215;DHT22;4642;51.364;6.788;2023-06-19T09:58:48;23.40;29.00
9215;DHT22;4642;51.364;6.788;2023-06-19T10:01:15;23.50;99.90
9215;DHT22;4642;51.364;6.788;2023-06-19T10:03:43;23.60;91.10
9215;DHT22;4642;51.364;6.788;2023-06-19T10:06:13;23.70;31.80
9215;DHT22;4642;51.364;6.788;2023-06-19T10:08:41;23.80;53.90
9215;DHT22;4642;51.364;6.788;2023-06-19T10:11:08;24.00;69.40
9215;DHT22;4642;51.364;6.788;2023-06-19T10:13:35;24.10;1.00
9215;DHT22;4642;51.364;6.788;2023-06-19T10:16:01;24.20;1.00
9215;DHT22;4642;51.364;6.788;2023-06-19T10:18:27;24.20;1.00
9215;DHT22;4642;51.364;6.788;2023-06-19T10:20:54;24.30;1.00
9215;DHT22;4642;51.364;6.788;2023-06-19T10:23:22;24.20;1.00
9215;DHT22;4642;51.364;6.788;2023-06-19T10:28:22;24.50;1.00
9215;DHT22;4642;51.364;6.788;2023-06-19T10:31:01;24.60;1.00
9215;DHT22;4642;51.364;6.788;2023-06-19T10:33:33;24.60;1.00
9215;DHT22;4642;51.364;6.788;2023-06-19T10:36:14;24.70;1.00
9215;DHT22;4642;51.364;6.788;2023-06-19T10:38:40;24.90;1.00
9215;DHT22;4642;51.364;6.788;2023-06-19T10:41:15;25.10;1.00
9215;DHT22;4642;51.364;6.788;2023-06-19T10:43:40;25.10;1.00
9215;DHT22;4642;51.364;6.788;2023-06-19T10:46:06;25.20;1.00
9215;DHT22;4642;51.364;6.788;2023-06-19T10:48:32;25.20;1.00
9215;DHT22;4642;51.364;6.788;2023-06-19T10:50:57;25.30;99.90
9215;DHT22;4642;51.364;6.788;2023-06-19T10:53:29;25.30;99.90
9215;DHT22;4642;51.364;6.788;2023-06-19T10:56:00;25.30;1.00
9215;DHT22;4642;51.364;6.788;2023-06-19T10:58:26;25.20;99.90
9215;DHT22;4642;51.364;6.788;2023-06-19T11:00:53;25.20;1.00
9215;DHT22;4642;51.364;6.788;2023-06-19T11:03:19;25.20;99.90
9215;DHT22;4642;51.364;6.788;2023-06-19T11:05:45;25.20;99.90
9215;DHT22;4642;51.364;6.788;2023-06-19T11:08:11;25.30;1.00
9215;DHT22;4642;51.364;6.788;2023-06-19T11:10:42;25.50;1.00
9215;DHT22;4642;51.364;6.788;2023-06-19T11:13:07;25.70;99.90
9215;DHT22;4642;51.364;6.788;2023-06-19T11:15:38;25.80;99.90
9215;DHT22;4642;51.364;6.788;2023-06-19T11:18:04;25.80;99.90
9215;DHT22;4642;51.364;6.788;2023-06-19T11:20:30;25.70;99.90
9215;DHT22;4642;51.364;6.788;2023-06-19T11:23:00;25.80;99.90
9215;DHT22;4642;51.364;6.788;2023-06-19T11:25:39;26.00;99.90
9215;DHT22;4642;51.364;6.788;2023-06-19T11:28:15;25.80;99.90
9215;DHT22;4642;51.364;6.788;2023-06-19T11:30:47;25.60;1.00
9215;DHT22;4642;51.364;6.788;2023-06-19T11:33:20;25.60;96.00
9215;DHT22;4642;51.364;6.788;2023-06-19T11:35:48;25.70;15.80
9215;DHT22;4642;51.364;6.788;2023-06-19T11:38:22;25.70;46.80
9215;DHT22;4642;51.364;6.788;2023-06-19T11:40:48;25.70;99.90
9215;DHT22;4642;51.364;6.788;2023-06-19T11:43:28;25.80;90.80
9215;DHT22;4642;51.364;6.788;2023-06-19T11:45:54;25.80;99.90
9215;DHT22;4642;51.364;6.788;2023-06-19T11:48:25;25.70;99.90
9215;DHT22;4642;51.364;6.788;2023-06-19T11:50:51;25.70;99.90
9215;DHT22;4642;51.364;6.788;2023-06-19T11:53:22;25.90;99.90
9215;DHT22;4642;51.364;6.788;2023-06-19T11:55:48;26.10;1.00
9215;DHT22;4642;51.364;6.788;2023-06-19T11:58:13;26.40;1.00
9215;DHT22;4642;51.364;6.788;2023-06-19T12:00:41;26.50;1.00
9215;DHT22;4642;51.364;6.788;2023-06-19T12:03:06;26.50;1.00
9215;DHT22;4642;51.364;6.788;2023-06-19T12:05:32;26.70;1.00
9215;DHT22;4642;51.364;6.788;2023-06-19T12:07:57;26.90;1.00
9215;DHT22;4642;51.364;6.788;2023-06-19T12:10:23;26.80;1.00
9215;DHT22;4642;51.364;6.788;2023-06-19T12:12:49;26.90;1.00
9215;DHT22;4642;51.364;6.788;2023-06-19T12:15:14;27.00;1.00
9215;DHT22;4642;51.364;6.788;2023-06-19T12:17:40;27.00;99.90
9215;DHT22;4642;51.364;6.788;2023-06-19T12:20:06;27.10;1.00
9215;DHT22;4642;51.364;6.788;2023-06-19T12:22:33;27.20;1.00
9215;DHT22;4642;51.364;6.788;2023-06-19T12:24:59;27.20;99.90
9215;DHT22;4642;51.364;6.788;2023-06-19T12:27:25;27.10;99.90
9215;DHT22;4642;51.364;6.788;2023-06-19T12:29:50;27.00;95.40
9215;DHT22;4642;51.364;6.788;2023-06-19T12:32:16;27.00;99.90
9215;DHT22;4642;51.364;6.788;2023-06-19T12:34:41;27.00;99.90
9215;DHT22;4642;51.364;6.788;2023-06-19T12:37:13;27.00;99.90
9215;DHT22;4642;51.364;6.788;2023-06-19T12:39:40;27.00;1.00
9215;DHT22;4642;51.364;6.788;2023-06-19T12:42:06;27.00;1.00
9215;DHT22;4642;51.364;6.788;2023-06-19T12:44:32;26.90;1.00
9215;DHT22;4642;51.364;6.788;2023-06-19T12:46:57;26.80;1.00
9215;DHT22;4642;51.364;6.788;2023-06-19T12:49:25;26.80;54.70
9215;DHT22;4642;51.364;6.788;2023-06-19T12:51:51;26.80;99.90
9215;DHT22;4642;51.364;6.788;2023-06-19T12:54:17;26.60;99.90
9215;DHT22;4642;51.364;6.788;2023-06-19T12:56:43;26.60;99.90
9215;DHT22;4642;51.364;6.788;2023-06-19T12:59:09;26.60;99.90
9215;DHT22;4642;51.364;6.788;2023-06-19T13:01:35;26.30;99.90
9215;DHT22;4642;51.364;6.788;2023-06-19T13:04:01;26.70;1.00
9215;DHT22;4642;51.364;6.788;2023-06-19T13:06:26;26.90;99.90
9215;DHT22;4642;51.364;6.788;2023-06-19T13:08:52;26.80;1.00
9215;DHT22;4642;51.364;6.788;2023-06-19T13:11:17;26.70;40.20
9215;DHT22;4642;51.364;6.788;2023-06-19T13:13:43;26.80;99.90
9215;DHT22;4642;51.364;6.788;2023-06-19T13:16:08;26.90;99.90
9215;DHT22;4642;51.364;6.788;2023-06-19T13:18:35;26.90;90.00
9215;DHT22;4642;51.364;6.788;2023-06-19T13:21:00;26.90;1.00
9215;DHT22;4642;51.364;6.788;2023-06-19T13:23:26;27.00;1.00
9215;DHT22;4642;51.364;6.788;2023-06-19T13:25:52;27.20;1.00
9215;DHT22;4642;51.364;6.788;2023-06-19T13:28:17;27.30;1.00
9215;DHT22;4642;51.364;6.788;2023-06-19T13:30:43;27.40;99.90
9215;DHT22;4642;51.364;6.788;2023-06-19T13:33:08;27.60;1.00
9215;DHT22;4642;51.364;6.788;2023-06-19T13:35:34;27.60;99.90
9215;DHT22;4642;51.364;6.788;2023-06-19T13:38:00;27.60;9.70
9215;DHT22;4642;51.364;6.788;2023-06-19T13:40:26;27.30;1.00
9215;DHT22;4642;51.364;6.788;2023-06-19T13:42:51;27.40;1.00
9215;DHT22;4642;51.364;6.788;2023-06-19T13:45:17;27.40;1.00
9215;DHT22;4642;51.364;6.788;2023-06-19T13:47:42;27.50;1.70
9215;DHT22;4642;51.364;6.788;2023-06-19T13:50:08;27.70;99.90
9215;DHT22;4642;51.364;6.788;2023-06-19T13:52:34;28.00;99.90
9215;DHT22;4642;51.364;6.788;2023-06-19T13:55:00;28.00;1.00
9215;DHT22;4642;51.364;6.788;2023-06-19T13:57:27;27.80;1.00
9215;DHT22;4642;51.364;6.788;2023-06-19T13:59:53;27.90;1.00
9215;DHT22;4642;51.364;6.788;2023-06-19T14:02:19;27.90;1.00
9215;DHT22;4642;51.364;6.788;2023-06-19T14:04:44;27.90;1.00
9215;DHT22;4642;51.364;6.788;2023-06-19T14:07:10;27.80;1.00
9215;DHT22;4642;51.364;6.788;2023-06-19T14:09:35;28.30;99.90
9215;DHT22;4642;51.364;6.788;2023-06-19T14:12:01;28.60;7.90
9215;DHT22;4642;51.364;6.788;2023-06-19T14:14:27;28.50;1.00
9215;DHT22;4642;51.364;6.788;2023-06-19T14:16:52;28.70;99.90
9215;DHT22;4642;51.364;6.788;2023-06-19T14:19:18;28.40;99.90
9215;DHT22;4642;51.364;6.788;2023-06-19T14:21:43;28.40;99.90
9215;DHT22;4642;51.364;6.788;2023-06-19T14:24:09;28.20;99.90
9215;DHT22;4642;51.364;6.788;2023-06-19T14:26:34;28.30;92.10
9215;DHT22;4642;51.364;6.788;2023-06-19T14:29:00;28.50;99.90
9215;DHT22;4642;51.364;6.788;2023-06-19T14:31:25;28.80;99.90
9215;DHT22;4642;51.364;6.788;2023-06-19T14:33:51;29.00;99.90
9215;DHT22;4642;51.364;6.788;2023-06-19T14:36:16;29.30;1.00
9215;DHT22;4642;51.364;6.788;2023-06-19T14:38:42;29.10;1.00
9215;DHT22;4642;51.364;6.788;2023-06-19T14:41:07;29.00;1.00
9215;DHT22;4642;51.364;6.788;2023-06-19T14:43:33;29.00;1.00
9215;DHT22;4642;51.364;6.788;2023-06-19T14:46:01;29.10;1.00
9215;DHT22;4642;51.364;6.788;2023-06-19T14:48:28;29.10;1.00
9215;DHT22;4642;51.364;6.788;2023-06-19T14:50:55;29.20;1.00
9215;DHT22;4642;51.364;6.788;2023-06-19T14:53:21;29.30;1.00
9215;DHT22;4642;51.364;6.788;2023-06-19T14:55:47;29.50;1.00
9215;DHT22;4642;51.364;6.788;2023-06-19T14:58:13;29.70;1.00
9215;DHT22;4642;51.364;6.788;2023-06-19T15:00:39;29.40;1.00
9215;DHT22;4642;51.364;6.788;2023-06-19T15:03:05;29.50;1.00
9215;DHT22;4642;51.364;6.788;2023-06-19T15:05:32;29.70;1.00
9215;DHT22;4642;51.364;6.788;2023-06-19T15:07:58;29.90;1.00
9215;DHT22;4642;51.364;6.788;2023-06-19T15:10:24;30.00;1.00
9215;DHT22;4642;51.364;6.788;2023-06-19T15:12:49;30.10;1.00
9215;DHT22;4642;51.364;6.788;2023-06-19T15:15:15;30.20;1.00
9215;DHT22;4642;51.364;6.788;2023-06-19T15:17:40;30.30;1.00
9215;DHT22;4642;51.364;6.788;2023-06-19T15:20:06;30.40;1.00
9215;DHT22;4642;51.364;6.788;2023-06-19T15:22:34;30.40;99.90
9215;DHT22;4642;51.364;6.788;2023-06-19T15:24:59;30.60;1.00
9215;DHT22;4642;51.364;6.788;2023-06-19T15:27:25;30.50;99.90
9215;DHT22;4642;51.364;6.788;2023-06-19T15:29:50;30.40;99.90
9215;DHT22;4642;51.364;6.788;2023-06-19T15:32:16;30.40;99.90
9215;DHT22;4642;51.364;6.788;2023-06-19T15:34:41;30.40;99.90
9215;DHT22;4642;51.364;6.788;2023-06-19T15:37:07;30.50;99.90
9215;DHT22;4642;51.364;6.788;2023-06-19T15:39:32;30.40;99.90
9215;DHT22;4642;51.364;6.788;2023-06-19T15:41:58;30.20;99.90
9215;DHT22;4642;51.364;6.788;2023-06-19T15:44:23;30.30;99.90
9215;DHT22;4642;51.364;6.788;2023-06-19T15:46:49;30.30;99.90
9215;DHT22;4642;51.364;6.788;2023-06-19T15:49:15;30.20;99.90
9215;DHT22;4642;51.364;6.788;2023-06-19T15:51:40;30.30;99.90
9215;DHT22;4642;51.364;6.788;2023-06-19T15:54:06;30.50;99.90
9215;DHT22;4642;51.364;6.788;2023-06-19T15:56:32;30.50;99.90
9215;DHT22;4642;51.364;6.788;2023-06-19T15:58:58;30.60;99.90
9215;DHT22;4642;51.364;6.788;2023-06-19T16:01:23;30.60;99.90
9215;DHT22;4642;51.364;6.788;2023-06-19T16:03:49;30.80;99.90
9215;DHT22;4642;51.364;6.788;2023-06-19T16:06:14;30.40;98.70
9215;DHT22;4642;51.364;6.788;2023-06-19T16:08:40;30.30;99.90
9215;DHT22;4642;51.364;6.788;2023-06-19T16:11:05;30.30;99.90
9215;DHT22;4642;51.364;6.788;2023-06-19T16:13:31;30.20;99.90